createdAt,value
2023-01-20T00:01:27.991Z,91.30
2023-01-20T00:04:00.656Z,91.30
2023-01-20T00:06:31.899Z,91.10
2023-01-20T00:09:04.890Z,91.10
2023-01-20T00:11:36.024Z,91.10
2023-01-20T00:14:06.963Z,91.10
2023-01-20T00:16:37.790Z,91.40
2023-01-20T00:19:08.863Z,91.00
2023-01-20T00:21:39.974Z,91.00
2023-01-20T00:24:11.041Z,90.90
2023-01-20T00:26:41.833Z,90.90
2023-01-20T00:29:12.851Z,90.90
2023-01-20T00:31:43.903Z,90.70
2023-01-20T00:34:14.762Z,90.60
2023-01-20T00:36:45.597Z,90.40
2023-01-20T00:39:16.434Z,90.20
2023-01-20T00:41:47.182Z,90.20
2023-01-20T00:44:17.990Z,90.10
2023-01-20T00:46:49.333Z,90.00
2023-01-20T00:49:20.058Z,89.80
2023-01-20T00:51:50.736Z,89.80
2023-01-20T00:54:21.761Z,89.50
2023-01-20T00:56:52.541Z,89.00
2023-01-20T00:59:23.224Z,88.60
2023-01-20T01:01:54.440Z,88.20
2023-01-20T01:04:26.249Z,88.30
2023-01-20T01:06:57.019Z,88.30
2023-01-20T01:09:27.809Z,89.30
2023-01-20T01:11:58.601Z,88.30
2023-01-20T01:14:29.476Z,88.20
2023-01-20T01:17:00.274Z,88.20
2023-01-20T01:19:31.122Z,88.30
2023-01-20T01:22:01.775Z,88.30
2023-01-20T01:24:32.464Z,88.10
2023-01-20T01:27:04.645Z,87.80
2023-01-20T01:29:35.422Z,87.70
2023-01-20T01:32:06.455Z,87.20
2023-01-20T01:34:37.511Z,87.00
2023-01-20T01:37:09.140Z,86.80
2023-01-20T01:39:39.906Z,87.10
2023-01-20T01:42:18.156Z,86.80
2023-01-20T01:45:14.437Z,86.70
2023-01-20T01:47:48.582Z,86.70
2023-01-20T01:50:30.972Z,86.70
2023-01-20T01:53:02.567Z,86.50
2023-01-20T01:55:35.775Z,86.50
2023-01-20T01:58:09.184Z,86.20
2023-01-20T02:00:41.213Z,86.00
2023-01-20T02:03:13.283Z,85.60
2023-01-20T02:05:46.029Z,85.50
2023-01-20T02:08:17.530Z,84.30
2023-01-20T02:10:48.736Z,84.40
2023-01-20T02:13:20.020Z,84.10
2023-01-20T02:16:03.765Z,83.30
2023-01-20T02:18:40.431Z,83.50
2023-01-20T02:21:25.800Z,83.40
2023-01-20T02:24:24.110Z,83.20
2023-01-20T02:27:06.460Z,83.00
2023-01-20T02:29:51.480Z,83.20
2023-01-20T02:32:49.458Z,82.70
2023-01-20T02:35:28.490Z,82.70
2023-01-20T02:38:10.574Z,82.50
2023-01-20T02:40:52.631Z,82.40
2023-01-20T02:43:42.709Z,82.20
2023-01-20T02:46:15.991Z,82.00
2023-01-20T02:49:23.210Z,82.10
2023-01-20T02:52:03.132Z,82.60
2023-01-20T02:54:35.905Z,81.70
2023-01-20T02:57:09.828Z,82.00
2023-01-20T02:59:43.504Z,81.30
2023-01-20T03:02:20.820Z,81.40
2023-01-20T03:04:57.851Z,81.60
2023-01-20T03:07:31.962Z,81.60
2023-01-20T03:10:05.105Z,81.50
2023-01-20T03:12:54.466Z,81.00
2023-01-20T03:15:29.001Z,80.90
2023-01-20T03:18:00.995Z,80.50
2023-01-20T03:20:32.963Z,80.30
2023-01-20T03:23:03.816Z,80.10
2023-01-20T03:25:36.047Z,79.70
2023-01-20T03:28:07.087Z,79.90
2023-01-20T03:30:46.459Z,78.50
2023-01-20T03:33:19.935Z,78.00
2023-01-20T03:35:52.390Z,77.20
2023-01-20T03:38:23.728Z,77.30
2023-01-20T03:41:06.226Z,77.00
2023-01-20T03:43:43.409Z,76.90
2023-01-20T03:46:20.698Z,76.50
2023-01-20T03:48:58.892Z,77.40
2023-01-20T03:51:39.080Z,76.00
2023-01-20T03:54:12.403Z,75.80
2023-01-20T03:56:56.102Z,75.60
2023-01-20T03:59:28.716Z,75.20
2023-01-20T04:02:03.020Z,74.50
2023-01-20T04:04:37.072Z,74.60
2023-01-20T04:07:12.809Z,75.10
2023-01-20T04:09:51.898Z,74.00
2023-01-20T04:12:23.067Z,74.00
2023-01-20T04:14:54.599Z,73.60
2023-01-20T04:17:32.786Z,73.40
2023-01-20T04:20:10.257Z,73.40
2023-01-20T04:22:55.546Z,71.80
2023-01-20T04:25:35.183Z,71.50
2023-01-20T04:28:06.271Z,70.20
2023-01-20T04:30:47.851Z,70.00
2023-01-20T04:33:22.897Z,69.90
2023-01-20T04:35:54.234Z,70.60
2023-01-20T04:38:25.940Z,70.30
2023-01-20T04:40:57.055Z,68.70
2023-01-20T04:43:28.240Z,68.20
2023-01-20T04:45:59.394Z,67.00
2023-01-20T04:48:32.789Z,67.30
2023-01-20T04:51:06.598Z,66.90
2023-01-20T04:53:37.471Z,67.00
2023-01-20T04:56:16.494Z,66.70
2023-01-20T04:58:48.736Z,65.40
2023-01-20T05:01:19.882Z,65.60
2023-01-20T05:03:51.164Z,66.20
2023-01-20T05:06:22.040Z,65.80
2023-01-20T05:08:52.796Z,66.10
2023-01-20T05:11:23.948Z,65.80
2023-01-20T05:13:55.044Z,67.30
2023-01-20T05:16:26.997Z,65.70
2023-01-20T05:18:57.670Z,64.30
2023-01-20T05:21:28.481Z,64.30
2023-01-20T05:24:00.085Z,64.30
2023-01-20T05:26:31.279Z,64.40
2023-01-20T05:29:02.105Z,64.00
2023-01-20T05:31:36.113Z,63.50
2023-01-20T05:34:06.850Z,63.80
2023-01-20T05:36:37.618Z,63.90
2023-01-20T05:39:08.962Z,63.90
2023-01-20T05:41:39.892Z,63.20
2023-01-20T05:44:10.860Z,63.50
2023-01-20T05:46:42.312Z,63.30
2023-01-20T05:49:16.946Z,62.90
2023-01-20T05:51:48.488Z,63.40
2023-01-20T05:54:19.926Z,62.70
2023-01-20T05:56:51.952Z,62.30
2023-01-20T05:59:23.121Z,62.00
2023-01-20T06:01:54.590Z,61.40
2023-01-20T06:04:25.807Z,61.20
2023-01-20T06:06:57.886Z,61.00
2023-01-20T06:09:29.379Z,60.60
2023-01-20T06:12:00.286Z,60.50
2023-01-20T06:14:31.783Z,60.30
2023-01-20T06:17:03.027Z,60.20
2023-01-20T06:19:34.454Z,60.00
2023-01-20T06:22:05.504Z,60.00
2023-01-20T06:24:36.418Z,60.30
2023-01-20T06:27:21.730Z,60.00
2023-01-20T06:29:53.196Z,60.60
2023-01-20T06:32:34.590Z,59.40
2023-01-20T06:35:05.827Z,60.90
2023-01-20T06:37:39.128Z,58.80
2023-01-20T06:40:11.911Z,59.10
2023-01-20T06:42:44.082Z,58.80
2023-01-20T06:45:17.551Z,59.00
2023-01-20T06:47:52.519Z,59.10
2023-01-20T06:50:23.397Z,59.40
2023-01-20T06:52:55.616Z,59.80
2023-01-20T06:55:27.898Z,59.10
2023-01-20T06:57:58.797Z,58.90
2023-01-20T07:00:30.058Z,59.60
2023-01-20T07:06:05.598Z,59.00
2023-01-20T07:08:36.691Z,60.10
2023-01-20T07:11:08.226Z,61.80
2023-01-20T07:13:39.891Z,61.00
2023-01-20T07:16:16.033Z,58.80
2023-01-20T07:18:53.182Z,58.10
2023-01-20T07:21:26.512Z,57.60
2023-01-20T07:23:57.848Z,57.50
2023-01-20T07:26:35.153Z,58.20
2023-01-20T07:29:06.598Z,57.90
2023-01-20T07:31:37.778Z,57.20
2023-01-20T07:34:09.222Z,57.80
2023-01-20T07:36:40.569Z,57.60
2023-01-20T07:39:16.595Z,57.60
2023-01-20T07:41:49.018Z,58.00
2023-01-20T07:44:20.030Z,57.70
2023-01-20T07:46:52.709Z,58.00
2023-01-20T07:49:23.852Z,56.40
2023-01-20T07:51:54.850Z,56.90
2023-01-20T07:54:25.704Z,56.70
2023-01-20T07:56:56.476Z,56.60
2023-01-20T07:59:28.475Z,56.70
2023-01-20T08:01:59.298Z,56.60
2023-01-20T08:04:30.770Z,56.70
2023-01-20T08:07:02.175Z,56.20
2023-01-20T08:09:32.953Z,56.50
2023-01-20T08:12:03.805Z,55.90
2023-01-20T08:14:37.627Z,55.10
2023-01-20T08:17:07.417Z,54.90
2023-01-20T08:19:38.205Z,55.80
2023-01-20T08:22:09.753Z,55.80
2023-01-20T08:24:40.695Z,55.70
2023-01-20T08:27:11.937Z,55.70
2023-01-20T08:29:42.807Z,55.90
2023-01-20T08:32:13.672Z,56.10
2023-01-20T08:34:44.512Z,55.50
2023-01-20T08:37:15.652Z,55.80
2023-01-20T08:39:46.836Z,56.30
2023-01-20T08:42:17.559Z,56.60
2023-01-20T08:44:48.859Z,56.50
2023-01-20T08:47:20.073Z,56.10
2023-01-20T08:49:51.859Z,56.60
2023-01-20T08:52:24.932Z,55.80
2023-01-20T08:54:55.814Z,55.60
2023-01-20T08:57:28.515Z,56.00
2023-01-20T08:59:59.306Z,55.80
2023-01-20T09:02:35.006Z,55.90
2023-01-20T09:05:05.711Z,56.00
2023-01-20T09:07:45.448Z,55.70
2023-01-20T09:10:20.492Z,55.60
2023-01-20T09:12:51.147Z,55.90
2023-01-20T09:15:23.676Z,56.50
2023-01-20T09:17:54.329Z,56.40
2023-01-20T09:20:25.904Z,56.50
2023-01-20T09:22:57.027Z,56.60
2023-01-20T09:25:28.418Z,56.40
2023-01-20T09:28:00.499Z,56.50
2023-01-20T09:30:32.142Z,56.60
2023-01-20T09:33:03.900Z,57.00
2023-01-20T09:35:35.037Z,56.70
2023-01-20T09:38:23.732Z,56.50
2023-01-20T09:41:38.009Z,56.40
2023-01-20T09:44:23.886Z,56.80
2023-01-20T09:47:24.993Z,56.60
2023-01-20T09:50:35.421Z,56.60
2023-01-20T09:53:16.597Z,57.00
2023-01-20T09:55:59.807Z,56.30
2023-01-20T09:58:36.087Z,56.90
2023-01-20T10:01:19.369Z,56.60
2023-01-20T10:04:18.361Z,57.00
2023-01-20T10:07:07.393Z,57.10
2023-01-20T10:09:46.867Z,57.00
2023-01-20T10:12:37.904Z,57.90
2023-01-20T10:15:14.121Z,58.00
2023-01-20T10:17:53.408Z,57.90
2023-01-20T10:20:33.152Z,58.30
2023-01-20T10:23:15.480Z,58.20
2023-01-20T10:25:52.141Z,58.20
2023-01-20T10:28:30.523Z,58.20
2023-01-20T10:31:08.650Z,58.00
2023-01-20T10:33:45.812Z,58.10
2023-01-20T10:36:33.405Z,58.40
2023-01-20T10:39:31.881Z,58.40
2023-01-20T10:42:09.356Z,58.60
2023-01-20T10:44:44.167Z,58.40
2023-01-20T10:47:21.003Z,58.70
2023-01-20T10:49:54.305Z,58.50
2023-01-20T10:52:42.617Z,58.70
2023-01-20T10:55:22.347Z,58.90
2023-01-20T10:57:55.849Z,58.90
2023-01-20T11:00:34.192Z,59.10
2023-01-20T11:03:10.933Z,59.00
2023-01-20T11:05:43.591Z,59.10
2023-01-20T11:08:19.564Z,59.10
2023-01-20T11:10:52.506Z,59.30
2023-01-20T11:13:44.299Z,59.40
2023-01-20T11:16:22.340Z,59.50
2023-01-20T11:19:05.403Z,59.70
2023-01-20T11:21:39.024Z,59.70
2023-01-20T11:24:29.119Z,59.90
2023-01-20T11:27:11.224Z,59.90
2023-01-20T11:29:45.002Z,60.00
2023-01-20T11:32:36.456Z,60.30
2023-01-20T11:35:25.595Z,60.30
2023-01-20T11:37:56.824Z,60.30
2023-01-20T11:40:34.542Z,60.60
2023-01-20T11:43:05.487Z,60.80
2023-01-20T11:45:38.280Z,61.20
2023-01-20T11:48:17.824Z,60.70
2023-01-20T11:51:00.061Z,60.50
2023-01-20T11:53:38.465Z,60.80
2023-01-20T11:56:21.226Z,60.90
2023-01-20T11:59:00.262Z,61.00
2023-01-20T12:01:53.120Z,61.30
2023-01-20T12:04:38.197Z,61.30
2023-01-20T12:07:12.081Z,61.60
2023-01-20T12:09:48.145Z,62.00
2023-01-20T12:12:22.143Z,61.90
2023-01-20T12:15:01.298Z,62.20
2023-01-20T12:18:06.633Z,62.30
2023-01-20T12:20:56.964Z,63.50
2023-01-20T12:23:53.361Z,62.70
2023-01-20T12:26:26.013Z,62.70
2023-01-20T12:29:05.479Z,62.90
2023-01-20T12:31:36.525Z,62.80
2023-01-20T12:34:10.859Z,63.00
2023-01-20T12:36:56.257Z,63.30
2023-01-20T12:39:33.367Z,63.50
2023-01-20T12:42:24.733Z,63.40
2023-01-20T12:45:00.898Z,63.50
2023-01-20T12:47:46.018Z,63.80
2023-01-20T12:50:19.353Z,63.80
2023-01-20T12:53:11.895Z,64.00
2023-01-20T12:55:58.405Z,64.10
2023-01-20T12:58:47.920Z,64.10
2023-01-20T13:01:38.859Z,64.30
2023-01-20T13:04:34.423Z,64.60
2023-01-20T13:07:13.368Z,64.70
2023-01-20T13:09:50.893Z,64.90
2023-01-20T13:12:38.815Z,64.90
2023-01-20T13:15:27.322Z,65.00
2023-01-20T13:18:20.334Z,65.10
2023-01-20T13:20:53.036Z,65.40
2023-01-20T13:23:29.491Z,65.50
2023-01-20T13:26:04.129Z,65.70
2023-01-20T13:28:37.211Z,65.80
2023-01-20T13:31:26.760Z,65.90
2023-01-20T13:33:58.824Z,66.30
2023-01-20T13:36:29.825Z,66.30
2023-01-20T13:39:34.854Z,66.40
2023-01-20T13:42:06.976Z,66.40
2023-01-20T13:44:42.660Z,66.50
2023-01-20T13:47:15.468Z,66.30
2023-01-20T13:49:58.226Z,66.30
2023-01-20T13:52:53.966Z,66.40
2023-01-20T13:55:46.537Z,66.60
2023-01-20T13:58:19.115Z,66.80
2023-01-20T14:00:52.813Z,66.90
2023-01-20T14:03:26.067Z,67.00
2023-01-20T14:06:17.510Z,67.20
2023-01-20T14:08:52.777Z,67.40
2023-01-20T14:11:26.273Z,67.90
2023-01-20T14:14:07.048Z,68.00
2023-01-20T14:16:40.744Z,67.90
2023-01-20T14:19:27.895Z,67.90
2023-01-20T14:22:00.526Z,67.90
2023-01-20T14:24:33.736Z,68.00
2023-01-20T14:27:25.058Z,68.10
2023-01-20T14:29:58.718Z,68.20
2023-01-20T14:32:37.175Z,68.40
2023-01-20T14:35:28.887Z,68.40
2023-01-20T14:38:01.085Z,68.80
2023-01-20T14:40:38.339Z,68.70
2023-01-20T14:43:23.635Z,68.40
2023-01-20T14:45:55.552Z,69.20
2023-01-20T14:48:34.508Z,68.40
2023-01-20T14:50:59.196Z,68.50
2023-01-20T14:53:30.244Z,68.70
2023-01-20T14:56:04.980Z,69.00
2023-01-20T14:58:37.348Z,70.20
2023-01-20T15:01:09.507Z,69.20
2023-01-20T15:03:40.443Z,69.20
2023-01-20T15:06:23.072Z,69.30
2023-01-20T15:09:06.058Z,69.50
2023-01-20T15:11:30.725Z,69.60
2023-01-20T15:14:07.001Z,69.60
2023-01-20T15:16:47.608Z,69.60
2023-01-20T15:19:27.137Z,69.70
2023-01-20T15:22:00.299Z,69.80
2023-01-20T15:24:42.489Z,70.00
2023-01-20T15:27:28.407Z,69.90
2023-01-20T15:30:02.326Z,70.10
2023-01-20T15:32:33.026Z,69.80
2023-01-20T15:35:12.090Z,71.40
2023-01-20T15:37:47.952Z,70.40
2023-01-20T15:40:25.170Z,70.70
2023-01-20T15:42:57.582Z,70.90
2023-01-20T15:45:28.580Z,71.10
2023-01-20T15:47:59.518Z,71.30
2023-01-20T15:50:32.380Z,71.60
2023-01-20T15:53:04.689Z,72.00
2023-01-20T15:55:38.039Z,72.20
2023-01-20T15:58:13.810Z,72.50
2023-01-20T16:00:44.907Z,73.10
2023-01-20T16:03:15.671Z,73.20
2023-01-20T16:05:47.127Z,73.50
2023-01-20T16:08:23.306Z,74.80
2023-01-20T16:10:54.322Z,74.90
2023-01-20T16:13:25.048Z,75.10
2023-01-20T16:15:55.844Z,75.60
2023-01-20T16:18:26.930Z,75.70
2023-01-20T16:20:59.406Z,76.10
2023-01-20T16:23:30.403Z,77.20
2023-01-20T16:26:01.360Z,76.50
2023-01-20T16:28:32.222Z,76.10
2023-01-20T16:31:03.770Z,75.70
2023-01-20T16:33:34.634Z,76.50
2023-01-20T16:36:23.499Z,76.50
2023-01-20T16:38:55.126Z,76.40
2023-01-20T16:41:28.683Z,76.60
2023-01-20T16:44:04.607Z,76.20
2023-01-20T16:46:36.145Z,76.60
2023-01-20T16:49:07.074Z,76.90
2023-01-20T16:51:37.890Z,76.20
2023-01-20T16:54:08.929Z,76.80
2023-01-20T16:56:40.928Z,76.60
2023-01-20T16:59:12.414Z,76.70
2023-01-20T17:01:43.392Z,76.20
2023-01-20T17:04:14.078Z,76.30
2023-01-20T17:06:45.904Z,76.40
2023-01-20T17:09:16.852Z,76.40
2023-01-20T17:11:47.562Z,77.10
2023-01-20T17:14:18.268Z,77.30
2023-01-20T17:16:49.188Z,77.40
2023-01-20T17:19:20.695Z,77.50
2023-01-20T17:21:52.365Z,77.60
2023-01-20T17:24:23.257Z,77.30
2023-01-20T17:26:54.541Z,78.20
2023-01-20T17:29:25.250Z,78.00
2023-01-20T17:31:56.045Z,78.30
2023-01-20T17:34:26.801Z,78.30
2023-01-20T17:36:57.554Z,78.20
2023-01-20T17:39:28.275Z,78.30
2023-01-20T17:41:58.997Z,78.60
2023-01-20T17:44:29.832Z,78.80
2023-01-20T17:47:01.009Z,78.90
2023-01-20T17:49:31.903Z,79.00
2023-01-20T17:52:03.072Z,78.50
2023-01-20T17:54:39.793Z,79.10
2023-01-20T17:57:10.495Z,79.00
2023-01-20T17:59:42.793Z,79.20
2023-01-20T18:02:18.271Z,80.00
2023-01-20T18:04:49.020Z,79.20
2023-01-20T18:07:19.834Z,79.30
2023-01-20T18:09:51.075Z,79.10
2023-01-20T18:12:22.551Z,79.00
2023-01-20T18:14:55.210Z,79.40
2023-01-20T18:17:26.325Z,79.20
2023-01-20T18:19:57.404Z,79.50
2023-01-20T18:22:28.100Z,79.80
2023-01-20T18:25:00.280Z,80.10
2023-01-20T18:27:31.290Z,79.60
2023-01-20T18:30:02.075Z,79.80
2023-01-20T18:32:32.864Z,80.30
2023-01-20T18:35:03.632Z,80.40
2023-01-20T18:37:34.455Z,80.80
2023-01-20T18:40:05.746Z,81.00
2023-01-20T18:42:36.459Z,81.10
2023-01-20T18:45:07.692Z,82.50
2023-01-20T18:47:38.391Z,82.80
2023-01-20T18:50:10.099Z,83.30
2023-01-20T18:52:40.802Z,82.80
2023-01-20T18:55:18.937Z,82.80
2023-01-20T18:57:49.670Z,82.80
2023-01-20T19:00:21.745Z,83.90
2023-01-20T19:02:55.599Z,83.00
2023-01-20T19:05:26.411Z,83.70
2023-01-20T19:07:57.428Z,83.40
2023-01-20T19:10:28.359Z,83.90
2023-01-20T19:12:59.507Z,83.70
2023-01-20T19:15:31.682Z,84.10
2023-01-20T19:18:03.148Z,84.90
2023-01-20T19:20:33.926Z,84.10
2023-01-20T19:23:04.591Z,84.40
2023-01-20T19:25:35.272Z,84.50
2023-01-20T19:28:07.684Z,84.90
2023-01-20T19:30:39.478Z,85.60
2023-01-20T19:33:11.725Z,85.80
2023-01-20T19:35:42.431Z,85.90
2023-01-20T19:38:13.093Z,84.90
2023-01-20T19:40:43.791Z,85.40
2023-01-20T19:43:14.482Z,85.80
2023-01-20T19:45:46.231Z,85.90
2023-01-20T19:48:17.344Z,86.80
2023-01-20T19:50:48.320Z,86.60
2023-01-20T19:53:19.132Z,87.10
2023-01-20T19:55:50.201Z,86.90
2023-01-20T19:58:20.916Z,86.60
2023-01-20T20:00:51.607Z,85.90
2023-01-20T20:03:22.822Z,86.70
2023-01-20T20:05:53.645Z,86.20
2023-01-20T20:08:24.324Z,86.60
2023-01-20T20:10:55.067Z,86.40
2023-01-20T20:13:25.922Z,87.20
2023-01-20T20:16:07.816Z,87.40
2023-01-20T20:18:39.764Z,87.60
2023-01-20T20:21:11.704Z,87.70
2023-01-20T20:23:42.540Z,87.20
2023-01-20T20:26:16.451Z,87.80
2023-01-20T20:28:48.624Z,87.70
2023-01-20T20:31:19.746Z,87.80
2023-01-20T20:33:50.711Z,88.10
2023-01-20T20:36:21.588Z,88.10
2023-01-20T20:38:54.609Z,88.40
2023-01-20T20:41:27.590Z,88.70
2023-01-20T20:43:58.712Z,89.00
2023-01-20T20:46:30.348Z,88.70
2023-01-20T20:49:02.612Z,88.90
2023-01-20T20:51:35.794Z,89.70
2023-01-20T20:54:06.735Z,89.40
2023-01-20T20:56:37.655Z,89.10
2023-01-20T20:59:08.483Z,88.90
2023-01-20T21:01:39.492Z,89.50
2023-01-20T21:04:10.586Z,89.40
2023-01-20T21:06:41.392Z,89.10
2023-01-20T21:09:12.944Z,89.20
2023-01-20T21:11:43.634Z,89.70
2023-01-20T21:14:14.451Z,89.50
2023-01-20T21:16:45.536Z,88.90
2023-01-20T21:19:16.607Z,88.80
2023-01-20T21:21:47.435Z,89.10
2023-01-20T21:24:18.373Z,88.60
2023-01-20T21:26:49.079Z,88.90
2023-01-20T21:29:20.069Z,88.70
2023-01-20T21:31:51.544Z,88.00
2023-01-20T21:34:22.749Z,88.30
2023-01-20T21:36:53.600Z,88.20
2023-01-20T21:39:26.285Z,88.60
2023-01-20T21:41:56.994Z,87.90
2023-01-20T21:44:30.696Z,87.90
2023-01-20T21:47:06.737Z,88.10
2023-01-20T21:49:55.436Z,87.40
2023-01-20T21:52:46.663Z,87.80
2023-01-20T21:55:21.172Z,87.50
2023-01-20T21:57:52.714Z,87.80
2023-01-20T22:00:24.128Z,87.90
2023-01-20T22:02:54.910Z,87.30
2023-01-20T22:05:25.699Z,88.00
2023-01-20T22:07:56.417Z,87.90
2023-01-20T22:10:27.232Z,87.80
2023-01-20T22:12:58.458Z,87.90
2023-01-20T22:15:29.180Z,88.20
2023-01-20T22:18:00.456Z,88.00
2023-01-20T22:20:31.379Z,87.70
2023-01-20T22:23:02.075Z,88.20
2023-01-20T22:25:32.782Z,88.20
2023-01-20T22:28:03.573Z,88.20
2023-01-20T22:30:34.823Z,88.20
2023-01-20T22:33:05.666Z,88.30
2023-01-20T22:35:36.606Z,87.80
2023-01-20T22:38:08.932Z,88.20
2023-01-20T22:40:39.739Z,88.10
2023-01-20T22:43:10.451Z,88.30
2023-01-20T22:45:41.673Z,88.30
2023-01-20T22:48:12.481Z,88.50
2023-01-20T22:50:43.223Z,88.60
2023-01-20T22:53:13.893Z,88.60
2023-01-20T22:56:00.551Z,88.60
2023-01-20T22:58:22.712Z,89.10
2023-01-20T23:00:54.829Z,88.70
2023-01-20T23:03:25.618Z,89.20
2023-01-20T23:06:01.407Z,88.90
2023-01-20T23:08:51.220Z,88.70
2023-01-20T23:11:23.854Z,88.70
2023-01-20T23:14:14.576Z,88.80
2023-01-20T23:16:46.109Z,89.10
2023-01-20T23:19:17.347Z,89.00
2023-01-20T23:21:48.151Z,88.60
2023-01-20T23:24:18.874Z,88.10
2023-01-20T23:26:50.577Z,88.50
2023-01-20T23:29:21.597Z,88.40
2023-01-20T23:31:52.510Z,88.90
2023-01-20T23:34:23.244Z,88.90
2023-01-20T23:36:54.157Z,89.00
2023-01-20T23:39:25.263Z,89.40
2023-01-20T23:41:56.019Z,89.60
2023-01-20T23:44:26.803Z,89.10
2023-01-20T23:46:57.481Z,89.50
2023-01-20T23:49:28.290Z,89.60
2023-01-20T23:51:58.993Z,89.50
2023-01-20T23:54:29.708Z,89.50
2023-01-20T23:57:00.415Z,89.60
2023-01-20T23:59:31.221Z,89.70
